Time;durP1;ratioP1;P1;durP2;ratioP2;P2;SDS_P1;SDS_P2;PMS_P1;PMS_P2;Temp;Humidity;BMP_temperature;BMP_pressure;BME280_temperature;BME280_humidity;BME280_pressure;Samples;Min_cycle;Max_cycle;Signal;HPM_P1;HPM_P2
2022/11/23 00:01:35;;;;;;;59.65;27.60;;;-0.30;99.90;;;;;;5052963;28;20037;-66
2022/11/23 00:04:05;;;;;;;57.20;26.20;;;-0.30;99.90;;;;;;5052075;28;20021;-74
2022/11/23 00:06:31;;;;;;;60.22;26.33;;;-0.30;99.90;;;;;;5052040;28;20013;-66
2022/11/23 00:08:57;;;;;;;58.03;26.45;;;-0.30;99.90;;;;;;5052705;28;20540;-66
2022/11/23 00:11:24;;;;;;;51.38;24.10;;;-0.30;99.90;;;;;;5053220;28;20074;-67
2022/11/23 00:13:51;;;;;;;64.43;26.90;;;-0.30;99.90;;;;;;5053437;28;20433;-67
2022/11/23 00:16:19;;;;;;;66.28;27.17;;;-0.30;99.90;;;;;;5051899;28;20033;-74
2022/11/23 00:18:46;;;;;;;66.78;28.45;;;-0.30;99.90;;;;;;5053536;28;20025;-66
2022/11/23 00:21:17;;;;;;;61.55;26.95;;;-0.30;99.90;;;;;;5051859;28;20040;-66
2022/11/23 00:23:43;;;;;;;57.25;25.83;;;-0.30;99.90;;;;;;5053309;28;20478;-66
2022/11/23 00:26:10;;;;;;;58.50;25.70;;;-0.30;99.90;;;;;;5053306;28;20067;-66
2022/11/23 00:28:39;;;;;;;59.50;26.48;;;-0.30;99.90;;;;;;5053184;28;20021;-67
2022/11/23 00:31:16;;;;;;;52.60;27.25;;;-0.30;99.90;;;;;;5053103;28;20072;-66
2022/11/23 00:33:42;;;;;;;55.80;25.90;;;-0.30;99.90;;;;;;5051940;28;20027;-66
2022/11/23 00:36:12;;;;;;;59.33;24.58;;;-0.30;99.90;;;;;;5051916;28;20441;-74
2022/11/23 00:38:38;;;;;;;59.90;26.13;;;-0.30;99.90;;;;;;5052872;28;20546;-74
2022/11/23 00:41:06;;;;;;;55.28;24.50;;;-0.30;99.90;;;;;;5053113;28;20037;-74
2022/11/23 00:43:32;;;;;;;64.15;28.25;;;-0.30;99.90;;;;;;5052836;28;20045;-71
2022/11/23 00:46:17;;;;;;;62.75;26.83;;;-0.30;99.90;;;;;;5053262;28;20162;-73
2022/11/23 00:48:44;;;;;;;61.25;24.95;;;-0.30;99.90;;;;;;5051699;28;20037;-66
2022/11/23 00:51:11;;;;;;;56.03;25.98;;;-0.30;99.90;;;;;;5053088;28;20490;-74
2022/11/23 00:53:37;;;;;;;61.90;27.23;;;-0.40;99.90;;;;;;5052974;28;20070;-66
2022/11/23 00:56:03;;;;;;;63.80;27.15;;;-0.30;99.90;;;;;;5053041;28;20103;-67
2022/11/23 00:58:29;;;;;;;60.92;27.88;;;-0.40;99.90;;;;;;5052547;28;20478;-74
2022/11/23 01:01:10;;;;;;;70.43;28.58;;;-0.40;99.90;;;;;;5052746;28;20104;-74
2022/11/23 01:03:41;;;;;;;65.70;28.02;;;-0.40;99.90;;;;;;5052728;28;20032;-74
2022/11/23 01:06:10;;;;;;;67.30;26.38;;;-0.30;99.90;;;;;;5052954;28;20056;-66
2022/11/23 01:08:36;;;;;;;66.53;28.60;;;-0.30;99.90;;;;;;5053275;28;20092;-66
2022/11/23 01:11:04;;;;;;;70.75;30.10;;;-0.40;99.90;;;;;;5052937;28;20049;-74
2022/11/23 01:13:30;;;;;;;66.00;27.60;;;-0.40;99.90;;;;;;5052721;28;20052;-74
2022/11/23 01:15:56;;;;;;;59.75;28.95;;;-0.30;99.90;;;;;;5056447;28;20407;-66
2022/11/23 01:18:22;;;;;;;60.88;27.08;;;-0.40;99.90;;;;;;5055214;28;20064;-67
2022/11/23 01:20:48;;;;;;;61.55;27.65;;;-0.40;99.90;;;;;;5056582;28;20056;-66
2022/11/23 01:23:14;;;;;;;57.85;26.52;;;-0.40;99.90;;;;;;5056450;28;20053;-74
2022/11/23 01:25:39;;;;;;;62.35;26.83;;;-0.40;99.90;;;;;;5056400;28;20024;-74
2022/11/23 01:28:05;;;;;;;56.50;24.10;;;-0.40;99.90;;;;;;5056376;28;20083;-67
2022/11/23 01:30:33;;;;;;;64.90;27.48;;;-0.40;99.90;;;;;;5056378;28;20028;-67
2022/11/23 01:32:59;;;;;;;64.55;27.67;;;-0.40;99.90;;;;;;5055014;28;20025;-74
2022/11/23 01:35:24;;;;;;;61.25;28.88;;;-0.40;99.90;;;;;;5056280;28;20086;-74
2022/11/23 01:37:50;;;;;;;67.25;29.55;;;-0.40;99.90;;;;;;5056265;28;20029;-74
2022/11/23 01:40:15;;;;;;;62.00;27.13;;;-0.40;99.90;;;;;;5056176;28;20494;-71
2022/11/23 01:42:59;;;;;;;63.58;27.85;;;-0.30;99.90;;;;;;5055859;28;20115;-67
2022/11/23 01:45:54;;;;;;;73.05;32.38;;;-0.30;99.90;;;;;;5054811;28;20090;-74
2022/11/23 01:48:34;;;;;;;71.47;30.15;;;-0.30;99.90;;;;;;5056043;28;20481;-74
2022/11/23 01:51:05;;;;;;;62.72;28.50;;;-0.30;99.90;;;;;;5056168;28;20119;-67
2022/11/23 01:53:32;;;;;;;70.68;29.75;;;-0.30;99.90;;;;;;5055897;28;20057;-66
2022/11/23 01:56:00;;;;;;;61.05;24.92;;;-0.30;99.90;;;;;;5056142;28;20021;-74
2022/11/23 01:58:28;;;;;;;66.97;27.13;;;-0.30;99.90;;;;;;5054466;28;20435;-66
2022/11/23 02:00:53;;;;;;;62.65;27.48;;;-0.30;99.90;;;;;;5054521;28;20486;-75
2022/11/23 02:03:19;;;;;;;67.95;27.27;;;-0.30;99.90;;;;;;5055809;28;20021;-75
2022/11/23 02:05:53;;;;;;;59.90;25.85;;;-0.30;99.90;;;;;;5055762;28;20066;-75
2022/11/23 02:08:20;;;;;;;55.00;26.13;;;-0.30;99.90;;;;;;5056152;28;20482;-74
2022/11/23 02:10:46;;;;;;;62.03;27.05;;;-0.30;99.90;;;;;;5055879;28;20017;-74
2022/11/23 02:13:13;;;;;;;64.72;28.92;;;-0.30;99.90;;;;;;5055449;28;20044;-66
2022/11/23 02:15:39;;;;;;;62.40;27.35;;;-0.30;99.90;;;;;;5055644;28;20029;-74
2022/11/23 02:18:11;;;;;;;59.30;26.02;;;-0.30;99.90;;;;;;5055377;28;20116;-66
2022/11/23 02:20:37;;;;;;;66.88;27.55;;;-0.30;99.90;;;;;;5054206;28;20079;-75
2022/11/23 02:23:03;;;;;;;58.20;27.63;;;-0.40;99.90;;;;;;5055305;28;20065;-66
2022/11/23 02:25:53;;;;;;;59.60;27.33;;;-0.40;99.90;;;;;;5055258;28;20122;-75
2022/11/23 02:28:25;;;;;;;68.55;27.25;;;-0.40;99.90;;;;;;5055275;28;20104;-74
2022/11/23 02:30:53;;;;;;;65.68;24.92;;;-0.40;99.90;;;;;;5055341;28;20483;-66
2022/11/23 02:33:19;;;;;;;61.53;25.38;;;-0.40;99.90;;;;;;5055099;28;20443;-66
2022/11/23 02:35:49;;;;;;;67.22;28.25;;;-0.40;99.90;;;;;;5055151;28;20060;-75
2022/11/23 02:38:16;;;;;;;60.97;23.60;;;-0.40;99.90;;;;;;5055012;28;20418;-66
2022/11/23 02:40:42;;;;;;;62.90;28.13;;;-0.40;99.90;;;;;;5055092;28;20025;-67
2022/11/23 02:43:07;;;;;;;68.63;28.25;;;-0.50;99.90;;;;;;5068847;28;20456;-66
2022/11/23 02:45:45;;;;;;;71.28;29.13;;;-0.40;99.90;;;;;;5074816;28;20025;-74
2022/11/23 02:48:11;;;;;;;63.25;27.30;;;-0.50;99.90;;;;;;5075059;28;20063;-66
2022/11/23 02:50:36;;;;;;;66.25;28.83;;;-0.50;99.90;;;;;;5074941;28;20020;-74
2022/11/23 02:53:02;;;;;;;67.72;27.80;;;-0.50;99.90;;;;;;5075028;28;20020;-74
2022/11/23 02:55:27;;;;;;;61.67;26.27;;;-0.50;99.90;;;;;;5074785;28;20052;-66
2022/11/23 02:57:53;;;;;;;59.30;25.10;;;-0.50;99.90;;;;;;5074823;28;20017;-68
2022/11/23 03:00:18;;;;;;;68.30;28.60;;;-0.50;99.90;;;;;;5074504;28;20016;-66
2022/11/23 03:02:44;;;;;;;65.93;28.77;;;-0.50;99.90;;;;;;5074600;28;20036;-66
2022/11/23 03:05:10;;;;;;;78.78;28.63;;;-0.50;99.90;;;;;;5074533;28;20029;-66
2022/11/23 03:07:35;;;;;;;72.68;29.02;;;-0.40;99.90;;;;;;5072738;28;20390;-74
2022/11/23 03:10:02;;;;;;;70.00;30.25;;;-0.40;99.90;;;;;;5053155;28;20025;-66
2022/11/23 03:12:27;;;;;;;66.80;29.67;;;-0.40;99.90;;;;;;5054360;28;20021;-74
2022/11/23 03:14:53;;;;;;;63.88;26.05;;;-0.40;99.90;;;;;;5054314;28;20493;-66
2022/11/23 03:17:18;;;;;;;66.30;28.33;;;-0.40;99.90;;;;;;5053154;28;20116;-73
2022/11/23 03:19:44;;;;;;;72.07;27.75;;;-0.40;99.90;;;;;;5054290;28;20021;-67
2022/11/23 03:22:10;;;;;;;63.38;27.48;;;-0.40;99.90;;;;;;5054211;28;20033;-74
2022/11/23 03:24:35;;;;;;;69.78;29.80;;;-0.40;99.90;;;;;;5054098;28;20064;-74
2022/11/23 03:27:01;;;;;;;68.93;30.13;;;-0.40;99.90;;;;;;5054264;28;20029;-67
2022/11/23 03:29:26;;;;;;;67.75;29.13;;;-0.40;99.90;;;;;;5052738;28;20064;-74
2022/11/23 03:31:53;;;;;;;67.72;28.42;;;-0.50;99.90;;;;;;5054039;28;20490;-74
2022/11/23 03:34:18;;;;;;;80.97;29.55;;;-0.50;99.90;;;;;;5053895;28;20491;-66
2022/11/23 03:36:44;;;;;;;68.55;29.65;;;-0.50;99.90;;;;;;5053707;28;20021;-67
2022/11/23 03:39:10;;;;;;;71.57;26.70;;;-0.50;99.90;;;;;;5053857;28;20123;-66
2022/11/23 03:41:36;;;;;;;72.70;27.95;;;-0.50;99.90;;;;;;5053871;28;20043;-74
2022/11/23 03:44:02;;;;;;;77.22;28.08;;;-0.50;99.90;;;;;;5053877;28;20061;-66
2022/11/23 03:46:28;;;;;;;69.70;26.85;;;-0.50;99.90;;;;;;5053781;28;20235;-74
2022/11/23 03:48:54;;;;;;;73.63;27.98;;;-0.50;99.90;;;;;;5053747;28;20053;-67
2022/11/23 03:51:19;;;;;;;62.95;26.40;;;-0.50;99.90;;;;;;5053631;28;20159;-74
2022/11/23 03:53:45;;;;;;;66.22;27.00;;;-0.50;99.90;;;;;;5052584;28;20020;-74
2022/11/23 03:56:10;;;;;;;62.88;27.20;;;-0.50;99.90;;;;;;5053603;28;20032;-74
2022/11/23 03:58:36;;;;;;;75.60;27.33;;;-0.50;99.90;;;;;;5053675;28;20021;-66
2022/11/23 04:01:01;;;;;;;68.38;29.33;;;-0.50;99.90;;;;;;5052278;28;20021;-66
2022/11/23 04:03:27;;;;;;;68.45;27.25;;;-0.50;99.90;;;;;;5053635;28;20025;-67
2022/11/23 04:05:53;;;;;;;75.03;28.20;;;-0.50;99.90;;;;;;5053554;28;20120;-75
2022/11/23 04:08:18;;;;;;;72.22;28.83;;;-0.50;99.90;;;;;;5052099;28;20111;-67
2022/11/23 04:10:44;;;;;;;63.55;27.35;;;-0.50;99.90;;;;;;5053457;28;20431;-74
2022/11/23 04:13:09;;;;;;;70.85;28.25;;;-0.50;99.90;;;;;;5053481;28;20036;-74
2022/11/23 04:15:35;;;;;;;80.32;30.58;;;-0.50;99.90;;;;;;5053469;28;20094;-74
2022/11/23 04:18:00;;;;;;;66.78;26.90;;;-0.50;99.90;;;;;;5052284;28;20383;-74
2022/11/23 04:20:26;;;;;;;73.78;28.95;;;-0.50;99.90;;;;;;5053175;28;20090;-66
2022/11/23 04:22:52;;;;;;;69.78;26.70;;;-0.50;99.90;;;;;;5053192;28;20032;-67
2022/11/23 04:25:17;;;;;;;62.95;26.15;;;-0.60;99.90;;;;;;5053141;28;20082;-74
2022/11/23 04:27:44;;;;;;;65.95;26.38;;;-0.50;99.90;;;;;;5053413;28;20021;-74
2022/11/23 04:30:10;;;;;;;68.13;28.40;;;-0.50;99.90;;;;;;5053027;28;20386;-75
2022/11/23 04:32:36;;;;;;;73.22;26.98;;;-0.60;99.90;;;;;;5053227;28;20020;-75
2022/11/23 04:35:01;;;;;;;63.83;26.67;;;-0.60;99.90;;;;;;5051826;28;20021;-75
2022/11/23 04:37:27;;;;;;;66.65;26.67;;;-0.60;99.90;;;;;;5053251;28;20360;-67
2022/11/23 04:39:52;;;;;;;59.60;24.08;;;-0.60;99.90;;;;;;5053044;28;20029;-74
2022/11/23 04:42:18;;;;;;;60.38;25.58;;;-0.60;99.90;;;;;;5052936;28;20049;-66
2022/11/23 04:44:44;;;;;;;66.03;28.77;;;-0.60;99.90;;;;;;5053253;28;20025;-66
2022/11/23 04:47:10;;;;;;;63.45;25.20;;;-0.60;99.90;;;;;;5052861;28;20115;-67
2022/11/23 04:49:36;;;;;;;78.07;28.35;;;-0.60;99.90;;;;;;5054402;28;20029;-72
2022/11/23 04:52:02;;;;;;;67.80;27.65;;;-0.60;99.90;;;;;;5057039;28;20023;-74
2022/11/23 04:54:27;;;;;;;56.55;24.35;;;-0.60;99.90;;;;;;5057028;28;20029;-66
2022/11/23 04:56:53;;;;;;;67.25;26.75;;;-0.70;99.90;;;;;;5057053;28;20062;-67
2022/11/23 04:59:19;;;;;;;60.65;25.25;;;-0.70;99.90;;;;;;5055626;28;20025;-74
2022/11/23 05:01:44;;;;;;;59.35;23.55;;;-0.70;99.90;;;;;;5056844;28;20041;-68
2022/11/23 05:04:10;;;;;;;61.65;25.75;;;-0.70;99.90;;;;;;5056878;28;20112;-74
2022/11/23 05:06:36;;;;;;;57.28;24.98;;;-0.70;99.90;;;;;;5055691;28;20025;-67
2022/11/23 05:09:01;;;;;;;63.38;26.13;;;-0.80;99.90;;;;;;5057078;28;20036;-75
2022/11/23 05:11:27;;;;;;;71.05;27.13;;;-0.80;99.90;;;;;;5055309;28;20021;-75
2022/11/23 05:13:52;;;;;;;63.40;26.83;;;-0.70;99.90;;;;;;5055304;28;20013;-75
2022/11/23 05:16:18;;;;;;;67.18;27.45;;;-0.80;99.90;;;;;;5056317;28;20028;-66
2022/11/23 05:18:43;;;;;;;59.47;24.27;;;-0.80;99.90;;;;;;5056580;28;20036;-67
2022/11/23 05:21:09;;;;;;;55.25;23.45;;;-0.80;99.90;;;;;;5043013;28;20109;-66
2022/11/23 05:23:34;;;;;;;61.58;25.15;;;-0.70;99.90;;;;;;5035408;28;20025;-68
2022/11/23 05:26:00;;;;;;;59.22;24.85;;;-0.80;99.90;;;;;;5036537;28;20025;-67
2022/11/23 05:28:26;;;;;;;57.90;22.00;;;-0.80;99.90;;;;;;5036588;28;20017;-75
2022/11/23 05:30:52;;;;;;;50.08;22.60;;;-0.80;99.90;;;;;;5036426;28;20032;-74
2022/11/23 05:33:18;;;;;;;53.55;21.52;;;-0.80;99.90;;;;;;5036427;28;20022;-75
2022/11/23 05:35:43;;;;;;;60.85;25.05;;;-0.80;99.90;;;;;;5038540;28;20479;-74
2022/11/23 05:38:09;;;;;;;46.70;21.65;;;-0.80;99.90;;;;;;5046948;28;20029;-75
2022/11/23 05:40:35;;;;;;;50.33;22.30;;;-0.80;99.90;;;;;;5055757;28;20475;-75
2022/11/23 05:43:00;;;;;;;49.30;22.80;;;-0.80;99.90;;;;;;5055236;28;20139;-66
2022/11/23 05:45:26;;;;;;;43.85;21.70;;;-0.80;99.90;;;;;;5054717;28;20067;-75
2022/11/23 05:47:55;;;;;;;49.08;21.98;;;-0.80;99.90;;;;;;5054787;28;20025;-67
2022/11/23 05:50:26;;;;;;;49.75;21.52;;;-0.80;99.90;;;;;;5052065;28;20521;-66
2022/11/23 05:52:52;;;;;;;41.40;20.80;;;-0.70;99.90;;;;;;5034731;28;20071;-66
2022/11/23 05:55:17;;;;;;;42.85;20.75;;;-0.70;99.90;;;;;;5033454;28;20120;-74
2022/11/23 05:57:43;;;;;;;42.42;19.60;;;-0.80;99.90;;;;;;5033469;28;20022;-73
2022/11/23 06:00:09;;;;;;;42.45;20.42;;;-0.70;99.90;;;;;;5034374;28;20027;-66
2022/11/23 06:02:36;;;;;;;41.67;20.10;;;-0.70;99.90;;;;;;5034374;28;20040;-74
2022/11/23 06:05:02;;;;;;;46.47;19.85;;;-0.70;99.90;;;;;;5034720;28;20049;-67
2022/11/23 06:07:27;;;;;;;47.15;20.48;;;-0.70;99.90;;;;;;5036690;28;20026;-67
2022/11/23 06:09:53;;;;;;;57.13;22.23;;;-0.60;99.90;;;;;;5054550;28;20417;-66
2022/11/23 06:12:18;;;;;;;59.67;24.02;;;-0.60;99.90;;;;;;5054200;28;20044;-75
2022/11/23 06:14:44;;;;;;;49.63;21.80;;;-0.60;99.90;;;;;;5054333;28;20024;-74
2022/11/23 06:17:09;;;;;;;54.78;24.55;;;-0.60;99.90;;;;;;5054240;28;20025;-75
2022/11/23 06:19:36;;;;;;;65.78;23.45;;;-0.70;99.90;;;;;;5053184;28;20087;-66
2022/11/23 06:22:01;;;;;;;58.50;24.30;;;-0.70;99.90;;;;;;5054214;28;20107;-66
2022/11/23 06:24:27;;;;;;;55.70;24.05;;;-0.70;99.90;;;;;;5054304;28;20025;-75
2022/11/23 06:26:52;;;;;;;49.15;21.48;;;-0.80;99.90;;;;;;5054220;28;20542;-67
2022/11/23 06:29:19;;;;;;;62.20;23.65;;;-0.80;99.90;;;;;;5049047;28;20398;-75
2022/11/23 06:31:45;;;;;;;45.58;23.45;;;-0.80;99.90;;;;;;5044083;28;20025;-74
2022/11/23 06:34:11;;;;;;;54.08;23.85;;;-0.80;99.90;;;;;;5067160;28;20041;-66
2022/11/23 06:36:37;;;;;;;50.50;23.30;;;-0.80;99.90;;;;;;5051913;28;20018;-67
2022/11/23 06:39:02;;;;;;;42.85;20.63;;;-0.80;99.90;;;;;;5061490;28;20108;-67
2022/11/23 06:41:28;;;;;;;61.03;26.17;;;-0.80;99.90;;;;;;5043397;28;20132;-67
2022/11/23 06:43:54;;;;;;;50.85;23.70;;;-0.80;99.90;;;;;;5007386;28;1083531;-67
2022/11/23 06:46:19;;;;;;;56.47;23.52;;;-0.80;99.90;;;;;;5035003;28;20037;-75
2022/11/23 06:48:46;;;;;;;57.45;23.25;;;-0.80;99.90;;;;;;5033699;28;20028;-67
2022/11/23 06:51:13;;;;;;;57.13;22.30;;;-0.80;99.90;;;;;;5044791;28;20021;-75
2022/11/23 06:53:38;;;;;;;51.92;22.05;;;-0.80;99.90;;;;;;5054602;28;20017;-75
2022/11/23 06:56:04;;;;;;;46.97;21.23;;;-0.80;99.90;;;;;;5054542;28;20494;-67
2022/11/23 06:58:30;;;;;;;58.38;22.98;;;-0.70;99.90;;;;;;5054391;28;20021;-67
2022/11/23 07:01:00;;;;;;;58.10;24.02;;;-0.70;99.90;;;;;;5054200;28;20467;-74
2022/11/23 07:03:26;;;;;;;55.13;21.52;;;-0.70;99.90;;;;;;5048184;28;20418;-75
2022/11/23 07:05:52;;;;;;;48.70;22.05;;;-0.70;99.90;;;;;;5039516;28;20044;-75
2022/11/23 07:08:18;;;;;;;50.35;21.80;;;-0.70;99.90;;;;;;5045684;28;20025;-75
2022/11/23 07:10:43;;;;;;;54.95;23.02;;;-0.60;99.90;;;;;;5037273;28;20021;-75
2022/11/23 07:13:10;;;;;;;51.17;22.02;;;-0.60;99.90;;;;;;5051643;28;20491;-75
2022/11/23 07:15:37;;;;;;;47.38;21.85;;;-0.60;99.90;;;;;;5054410;28;20490;-74
2022/11/23 07:18:03;;;;;;;51.05;22.05;;;-0.50;99.90;;;;;;5053085;28;20017;-67
2022/11/23 07:20:29;;;;;;;51.40;21.23;;;-0.50;99.90;;;;;;5054324;28;20083;-75
2022/11/23 07:22:59;;;;;;;50.90;21.77;;;-0.50;99.90;;;;;;5052972;28;20032;-75
2022/11/23 07:25:25;;;;;;;48.47;21.05;;;-0.50;99.90;;;;;;5054029;28;20056;-67
2022/11/23 07:27:55;;;;;;;40.13;19.45;;;-0.50;99.90;;;;;;5052828;28;20045;-68
2022/11/23 07:30:20;;;;;;;51.05;22.17;;;-0.50;99.90;;;;;;5053888;28;20027;-75
2022/11/23 07:32:46;;;;;;;46.20;22.13;;;-0.50;99.90;;;;;;5047671;28;20041;-74
2022/11/23 07:35:12;;;;;;;61.72;25.50;;;-0.50;99.90;;;;;;5040125;28;20025;-74
2022/11/23 07:37:37;;;;;;;49.78;23.67;;;-0.50;99.90;;;;;;5042268;28;20056;-74
2022/11/23 07:40:03;;;;;;;51.20;23.08;;;-0.50;99.90;;;;;;5040832;28;20021;-75
2022/11/23 07:42:29;;;;;;;48.47;22.88;;;-0.40;99.90;;;;;;5042102;28;20053;-75
2022/11/23 07:44:54;;;;;;;52.85;21.52;;;-0.50;99.90;;;;;;5042468;28;20032;-75
2022/11/23 07:47:20;;;;;;;45.22;20.08;;;-0.50;99.90;;;;;;5041862;28;20033;-75
2022/11/23 07:49:46;;;;;;;42.05;19.48;;;-0.50;99.90;;;;;;5043862;28;20499;-66
2022/11/23 07:52:11;;;;;;;42.78;20.17;;;-0.50;99.90;;;;;;5033943;28;20033;-74
2022/11/23 07:54:37;;;;;;;37.83;18.77;;;-0.60;99.90;;;;;;5033477;28;20029;-75
2022/11/23 07:57:02;;;;;;;43.78;19.52;;;-0.60;99.90;;;;;;5033539;28;20026;-75
2022/11/23 07:59:28;;;;;;;45.65;19.83;;;-0.50;99.90;;;;;;5041321;28;20021;-71
2022/11/23 08:01:54;;;;;;;47.13;21.20;;;-0.50;99.90;;;;;;5038319;28;20091;-74
2022/11/23 08:04:19;;;;;;;42.80;19.20;;;-0.50;99.90;;;;;;5033344;28;20032;-66
2022/11/23 08:06:45;;;;;;;34.42;17.33;;;-0.50;99.90;;;;;;5033438;28;20022;-68
2022/11/23 08:09:10;;;;;;;48.58;18.98;;;-0.50;99.90;;;;;;5050292;28;20025;-74
2022/11/23 08:11:36;;;;;;;43.72;19.83;;;-0.40;99.90;;;;;;5053371;28;20414;-74
2022/11/23 08:14:01;;;;;;;49.13;20.95;;;-0.40;99.90;;;;;;5052940;28;20052;-75
2022/11/23 08:16:27;;;;;;;41.15;19.42;;;-0.40;99.90;;;;;;5053403;28;20029;-75
2022/11/23 08:18:52;;;;;;;36.63;17.00;;;-0.30;99.90;;;;;;5053182;28;20017;-74
2022/11/23 08:21:18;;;;;;;39.92;16.75;;;-0.30;99.90;;;;;;5053298;28;20387;-66
2022/11/23 08:23:44;;;;;;;41.35;19.52;;;-0.20;99.90;;;;;;5053331;28;20029;-67
2022/11/23 08:26:09;;;;;;;34.10;16.27;;;-0.20;99.90;;;;;;5053416;28;20025;-75
2022/11/23 08:28:37;;;;;;;30.02;13.68;;;-0.20;99.90;;;;;;5052974;28;20013;-75
2022/11/23 08:31:16;;;;;;;30.00;14.63;;;-0.20;99.90;;;;;;5051848;28;20021;-74
2022/11/23 08:33:41;;;;;;;29.02;14.95;;;-0.10;99.90;;;;;;5053076;28;20028;-75
2022/11/23 08:36:07;;;;;;;35.17;15.65;;;-0.10;99.90;;;;;;5052989;28;20029;-67
2022/11/23 08:38:33;;;;;;;44.08;17.58;;;0.00;99.90;;;;;;5053016;28;20028;-74
2022/11/23 08:41:00;;;;;;;28.35;14.98;;;0.00;99.90;;;;;;5051714;28;20021;-70
2022/11/23 08:43:26;;;;;;;39.55;25.67;;;0.00;99.90;;;;;;5051837;28;20494;-66
2022/11/23 08:45:56;;;;;;;35.47;17.17;;;0.00;99.90;;;;;;5051973;28;20025;-66
2022/11/23 08:48:22;;;;;;;27.20;15.48;;;0.10;99.90;;;;;;5051595;28;20075;-74
2022/11/23 08:50:48;;;;;;;27.65;14.38;;;0.10;99.90;;;;;;5052975;28;20491;-67
2022/11/23 08:53:13;;;;;;;31.45;13.95;;;0.10;99.90;;;;;;5052954;28;20025;-75
2022/11/23 08:55:39;;;;;;;32.45;15.43;;;0.10;99.90;;;;;;5052719;28;20067;-75
2022/11/23 08:58:06;;;;;;;37.88;14.80;;;0.20;99.90;;;;;;5053063;28;20382;-75
2022/11/23 09:00:31;;;;;;;32.85;15.18;;;0.20;99.90;;;;;;5052794;28;20078;-74
2022/11/23 09:02:57;;;;;;;28.95;14.82;;;0.20;99.90;;;;;;5052845;28;20116;-75
2022/11/23 09:05:24;;;;;;;26.17;12.75;;;0.30;99.90;;;;;;5052547;28;20060;-75
2022/11/23 09:07:49;;;;;;;31.42;13.43;;;0.30;99.90;;;;;;5050897;28;20022;-75
2022/11/23 09:10:16;;;;;;;28.70;14.25;;;0.30;99.90;;;;;;5051791;28;20021;-75
2022/11/23 09:12:42;;;;;;;24.63;13.27;;;0.40;99.90;;;;;;5051641;28;20025;-75
2022/11/23 09:15:08;;;;;;;31.23;13.95;;;0.40;99.90;;;;;;5051369;28;20021;-67
2022/11/23 09:17:34;;;;;;;25.52;14.10;;;0.40;99.90;;;;;;5051256;28;20017;-67
2022/11/23 09:20:00;;;;;;;24.92;13.80;;;0.40;99.90;;;;;;5052649;28;20470;-75
2022/11/23 09:22:25;;;;;;;24.02;12.55;;;0.40;99.90;;;;;;5051377;28;20079;-75
2022/11/23 09:24:52;;;;;;;26.13;13.27;;;0.40;99.90;;;;;;5051256;28;20074;-66
2022/11/23 09:27:18;;;;;;;22.15;11.68;;;0.50;99.90;;;;;;5052649;28;20109;-68
2022/11/23 09:29:43;;;;;;;30.48;14.27;;;0.50;99.90;;;;;;5052629;28;20096;-68
2022/11/23 09:32:09;;;;;;;25.90;13.20;;;0.50;99.90;;;;;;5051779;28;20017;-68
2022/11/23 09:34:35;;;;;;;23.58;13.10;;;0.50;99.90;;;;;;5052042;28;20025;-74
2022/11/23 09:37:00;;;;;;;23.75;12.93;;;0.50;99.90;;;;;;5056144;28;20109;-67
2022/11/23 09:39:26;;;;;;;23.77;13.88;;;0.50;99.90;;;;;;5053092;28;20013;-67
2022/11/23 09:42:13;;;;;;;28.60;13.25;;;0.50;99.90;;;;;;5056514;28;20079;-67
2022/11/23 09:45:00;;;;;;;25.88;11.48;;;0.60;99.90;;;;;;5053887;28;20410;-66
2022/11/23 09:47:32;;;;;;;22.80;12.82;;;0.60;99.90;;;;;;5053799;28;20029;-66
2022/11/23 09:50:10;;;;;;;24.75;13.38;;;0.60;99.90;;;;;;5054949;28;20029;-74
2022/11/23 09:52:40;;;;;;;23.98;12.20;;;0.60;99.90;;;;;;5054146;28;20094;-66
2022/11/23 09:55:37;;;;;;;25.23;15.13;;;0.60;99.90;;;;;;5055200;28;20021;-74
2022/11/23 09:58:05;;;;;;;28.58;15.18;;;0.60;99.90;;;;;;5054916;28;20426;-66
2022/11/23 10:00:43;;;;;;;34.47;15.80;;;0.70;99.90;;;;;;5052697;28;20143;-74
2022/11/23 10:03:17;;;;;;;31.65;14.20;;;0.70;99.90;;;;;;5052743;28;20489;-66
2022/11/23 10:06:21;;;;;;;25.85;13.77;;;0.70;99.90;;;;;;5054706;28;20474;-66
2022/11/23 10:09:19;;;;;;;26.95;13.52;;;0.60;99.90;;;;;;5053802;28;20028;-67
2022/11/23 10:12:09;;;;;;;28.88;14.82;;;0.60;99.90;;;;;;5031559;28;20483;-67
2022/11/23 10:15:07;;;;;;;29.38;12.48;;;0.60;99.90;;;;;;5054101;28;20033;-66
2022/11/23 10:17:51;;;;;;;29.85;15.77;;;0.60;99.90;;;;;;5053620;28;20028;-66
2022/11/23 10:20:48;;;;;;;28.50;13.07;;;0.70;99.90;;;;;;5052222;28;20035;-66
2022/11/23 10:23:26;;;;;;;38.47;16.65;;;0.60;99.90;;;;;;5054226;28;20040;-74
2022/11/23 10:25:52;;;;;;;37.90;16.20;;;0.70;99.90;;;;;;5052528;28;20032;-66
2022/11/23 10:28:20;;;;;;;27.27;14.95;;;0.60;99.90;;;;;;5055042;28;20013;-74
2022/11/23 10:31:11;;;;;;;32.95;17.33;;;0.60;99.90;;;;;;5052950;28;20102;-74
2022/11/23 10:33:43;;;;;;;26.98;13.45;;;0.70;99.90;;;;;;5055172;28;20024;-66
2022/11/23 10:36:12;;;;;;;35.73;16.83;;;0.70;99.90;;;;;;5053735;28;20075;-74
2022/11/23 10:38:38;;;;;;;28.08;14.48;;;0.80;99.90;;;;;;5055251;28;20381;-66
2022/11/23 10:41:09;;;;;;;41.47;16.02;;;0.80;99.90;;;;;;5053676;28;20112;-67
2022/11/23 10:43:57;;;;;;;36.00;16.02;;;0.70;99.90;;;;;;5055310;28;20069;-66
2022/11/23 10:46:28;;;;;;;32.80;14.57;;;0.70;99.90;;;;;;5054227;28;20033;-66
2022/11/23 10:48:54;;;;;;;36.03;17.08;;;0.70;99.90;;;;;;5054567;28;20101;-66
2022/11/23 10:51:27;;;;;;;29.75;14.25;;;0.70;99.90;;;;;;5054570;28;20032;-74
2022/11/23 10:54:03;;;;;;;32.40;15.93;;;0.70;99.90;;;;;;5054924;28;20053;-66
2022/11/23 10:56:30;;;;;;;34.95;16.20;;;0.80;99.90;;;;;;5054624;28;20414;-66
2022/11/23 10:58:56;;;;;;;37.70;16.20;;;0.80;99.90;;;;;;5054520;28;20025;-67
2022/11/23 11:01:24;;;;;;;37.67;18.13;;;0.80;99.90;;;;;;5054534;28;20037;-67
2022/11/23 11:03:52;;;;;;;34.70;16.80;;;0.80;99.90;;;;;;5054616;28;20025;-73
2022/11/23 11:06:30;;;;;;;36.60;16.75;;;0.80;99.90;;;;;;5053444;28;20111;-74
2022/11/23 11:08:59;;;;;;;38.28;18.40;;;0.90;99.90;;;;;;5047524;28;20064;-74
2022/11/23 11:11:27;;;;;;;38.50;18.17;;;0.90;99.90;;;;;;5043487;28;20014;-67
2022/11/23 11:14:02;;;;;;;37.08;16.90;;;0.90;99.90;;;;;;5042738;28;20087;-74
2022/11/23 11:16:34;;;;;;;36.72;15.77;;;0.90;99.90;;;;;;5060703;28;20021;-67
2022/11/23 11:19:25;;;;;;;36.33;18.03;;;1.00;99.90;;;;;;5074426;28;20024;-74
2022/11/23 11:21:51;;;;;;;33.08;16.70;;;1.00;99.90;;;;;;5074230;28;20040;-75
2022/11/23 11:24:37;;;;;;;42.47;17.00;;;1.00;99.90;;;;;;5041960;28;20033;-66
2022/11/23 11:27:20;;;;;;;34.13;17.27;;;1.00;99.90;;;;;;5043548;28;20085;-66
2022/11/23 11:29:49;;;;;;;42.80;17.63;;;1.00;99.90;;;;;;5050856;28;20017;-67
2022/11/23 11:32:45;;;;;;;36.17;15.38;;;1.10;99.90;;;;;;5053145;28;20467;-75
2022/11/23 11:35:24;;;;;;;36.38;16.85;;;1.10;99.90;;;;;;5044330;28;20039;-75
2022/11/23 11:37:54;;;;;;;38.33;17.70;;;1.00;99.90;;;;;;5049642;28;20025;-75
2022/11/23 11:40:30;;;;;;;33.83;17.05;;;1.10;99.90;;;;;;5046448;28;20072;-66
2022/11/23 11:43:01;;;;;;;35.03;16.15;;;1.10;99.90;;;;;;5041797;28;20616;-75
2022/11/23 11:45:36;;;;;;;40.60;17.20;;;1.10;99.90;;;;;;5045103;28;20020;-66
2022/11/23 11:48:22;;;;;;;39.38;18.10;;;1.10;99.90;;;;;;5042928;28;20029;-66
2022/11/23 11:50:55;;;;;;;39.72;19.20;;;1.00;99.90;;;;;;5049954;28;20032;-76
2022/11/23 11:53:28;;;;;;;38.97;17.23;;;1.00;99.90;;;;;;5071526;28;20027;-66
2022/11/23 11:56:15;;;;;;;42.97;20.20;;;1.00;99.90;;;;;;5056123;28;20021;-74
2022/11/23 11:58:48;;;;;;;51.63;18.83;;;0.90;99.90;;;;;;5069607;28;20036;-75
2022/11/23 12:01:19;;;;;;;50.80;23.08;;;0.90;99.90;;;;;;5060069;28;20048;-74
2022/11/23 12:03:58;;;;;;;42.47;21.63;;;0.90;99.90;;;;;;5060468;28;20037;-75
2022/11/23 12:06:33;;;;;;;49.78;22.90;;;0.90;99.90;;;;;;5072280;28;20028;-74
2022/11/23 12:09:14;;;;;;;49.95;23.30;;;0.90;99.90;;;;;;5060074;28;20036;-75
2022/11/23 12:11:40;;;;;;;49.10;21.50;;;0.90;99.90;;;;;;5070818;28;20013;-74
2022/11/23 12:14:12;;;;;;;44.92;20.15;;;0.90;99.90;;;;;;5072241;28;20399;-75
2022/11/23 12:17:16;;;;;;;49.72;21.00;;;0.90;99.90;;;;;;5072160;28;20036;-75
2022/11/23 12:19:58;;;;;;;46.55;20.20;;;0.90;99.90;;;;;;5067191;28;20397;-75
2022/11/23 12:22:38;;;;;;;46.33;22.23;;;0.90;99.90;;;;;;5072088;28;20056;-75
2022/11/23 12:25:19;;;;;;;48.22;22.85;;;0.90;99.90;;;;;;5062852;28;20025;-74
2022/11/23 12:28:02;;;;;;;46.22;22.77;;;0.90;99.90;;;;;;5071040;28;20056;-75
2022/11/23 12:30:29;;;;;;;51.22;24.30;;;0.80;99.90;;;;;;5071855;28;20040;-75
2022/11/23 12:33:12;;;;;;;46.13;22.85;;;0.80;99.90;;;;;;5067520;28;20021;-75
2022/11/23 12:36:05;;;;;;;41.60;20.43;;;0.80;99.90;;;;;;5051997;28;20033;-75
2022/11/23 12:39:08;;;;;;;38.10;18.15;;;0.80;99.90;;;;;;5071936;28;20275;-75
2022/11/23 12:41:52;;;;;;;48.75;21.30;;;0.80;99.90;;;;;;5071812;28;20017;-73